Suntar, Russia
Current Conditions -  °F | °C
As of 2:30 PM on Thursday 27 Nov 2014 (Local Time) from UEEE Reporting Station
Overcast Overcast  
Wind Chill: -33°   Ceiling: 10000
Heat Index: -17°   Visibility: 6mi
Dew Point: -24°   Wind: 7mph
Humidity: 70%   Direction: 270°W
Pressure: 29.88"   Gusts: NA
Location:  62.16°N, 117.63°E
Report Text: UEEE 270530Z 27003MPS 9999 SCT030 OVC100 M27/M31 Q1012 NOSIGRMK QFE750 23490150
Loading
Personal Weather Stations






























Interactive Weather Map New forecast layout! Learn more

10-Day Weather Forecast

Advertisements
Track Severe Weather on mobile